sensor_id;sensor_type;location;lat;lon;timestamp;pressure;altitude;pressure_sealevel;temperature;humidity
58973;BME280;44750;52.040;7.472;2023-05-22T00:04:34;100403.06;;;19.20;0.00
58973;BME280;44750;52.040;7.472;2023-05-22T00:09:34;100423.56;;;19.11;0.00
58973;BME280;44750;52.040;7.472;2023-05-22T00:14:34;100438.84;;;18.74;0.00
58973;BME280;44750;52.040;7.472;2023-05-22T00:19:35;100475.56;;;18.39;0.00
58973;BME280;44750;52.040;7.472;2023-05-22T00:24:35;100501.66;;;18.08;0.00
58973;BME280;44750;52.040;7.472;2023-05-22T00:29:35;100559.53;;;17.92;0.00
58973;BME280;44750;52.040;7.472;2023-05-22T00:34:35;100647.28;;;18.12;0.00
58973;BME280;44750;52.040;7.472;2023-05-22T00:39:35;100676.16;;;18.14;0.00
58973;BME280;44750;52.040;7.472;2023-05-22T00:44:36;100660.94;;;18.05;0.00
58973;BME280;44750;52.040;7.472;2023-05-22T00:49:36;100699.56;;;18.17;0.00
58973;BME280;44750;52.040;7.472;2023-05-22T00:54:36;100707.69;;;17.97;0.00
58973;BME280;44750;52.040;7.472;2023-05-22T00:59:37;100759.97;;;18.09;0.00
58973;BME280;44750;52.040;7.472;2023-05-22T01:04:37;100782.31;;;18.05;0.00
58973;BME280;44750;52.040;7.472;2023-05-22T01:09:38;100813.03;;;18.01;0.00
58973;BME280;44750;52.040;7.472;2023-05-22T01:15:09;100855.66;;;18.10;0.00
58973;BME280;44750;52.040;7.472;2023-05-22T01:25:27;100868.44;;;18.03;0.00
58973;BME280;44750;52.040;7.472;2023-05-22T01:31:01;100868.97;;;17.92;0.00
58973;BME280;44750;52.040;7.472;2023-05-22T01:36:06;100894.28;;;17.94;0.00
58973;BME280;44750;52.040;7.472;2023-05-22T01:41:08;100900.63;;;17.94;0.00
58973;BME280;44750;52.040;7.472;2023-05-22T01:46:08;100889.13;;;17.84;0.00
58973;BME280;44750;52.040;7.472;2023-05-22T01:51:13;100862.59;;;17.63;0.00
58973;BME280;44750;52.040;7.472;2023-05-22T01:56:19;100875.66;;;17.61;0.00
58973;BME280;44750;52.040;7.472;2023-05-22T02:01:21;100892.97;;;17.68;0.00
58973;BME280;44750;52.040;7.472;2023-05-22T02:06:27;100912.47;;;17.80;0.00
58973;BME280;44750;52.040;7.472;2023-05-22T02:11:31;100912.88;;;17.77;0.00
58973;BME280;44750;52.040;7.472;2023-05-22T02:16:31;100922.13;;;17.76;0.00
58973;BME280;44750;52.040;7.472;2023-05-22T02:21:35;100918.00;;;17.65;0.00
58973;BME280;44750;52.040;7.472;2023-05-22T02:26:35;100912.84;;;17.55;0.00
58973;BME280;44750;52.040;7.472;2023-05-22T02:31:35;100921.72;;;17.57;0.00
58973;BME280;44750;52.040;7.472;2023-05-22T02:36:36;100921.53;;;17.59;0.00
58973;BME280;44750;52.040;7.472;2023-05-22T02:41:36;100894.59;;;17.41;0.00
58973;BME280;44750;52.040;7.472;2023-05-22T02:46:36;100888.97;;;17.27;0.00
58973;BME280;44750;52.040;7.472;2023-05-22T02:51:36;100904.81;;;17.32;0.00
58973;BME280;44750;52.040;7.472;2023-05-22T02:56:36;100913.09;;;17.38;0.00
58973;BME280;44750;52.040;7.472;2023-05-22T03:01:37;100889.44;;;17.31;0.00
58973;BME280;44750;52.040;7.472;2023-05-22T03:06:37;100918.25;;;17.48;0.00
58973;BME280;44750;52.040;7.472;2023-05-22T03:11:37;100883.13;;;17.30;0.00
58973;BME280;44750;52.040;7.472;2023-05-22T03:16:37;100900.56;;;17.29;0.00
58973;BME280;44750;52.040;7.472;2023-05-22T03:21:38;100885.03;;;17.15;0.00
58973;BME280;44750;52.040;7.472;2023-05-22T03:26:40;100890.03;;;17.11;0.00
58973;BME280;44750;52.040;7.472;2023-05-22T03:31:40;100881.31;;;17.01;0.00
58973;BME280;44750;52.040;7.472;2023-05-22T03:36:40;100892.78;;;17.11;0.00
58973;BME280;44750;52.040;7.472;2023-05-22T03:41:40;100882.38;;;17.21;0.00
58973;BME280;44750;52.040;7.472;2023-05-22T03:46:41;100859.47;;;17.23;0.00
58973;BME280;44750;52.040;7.472;2023-05-22T03:51:41;100841.34;;;17.21;0.00
58973;BME280;44750;52.040;7.472;2023-05-22T03:56:42;100829.09;;;17.17;0.00
58973;BME280;44750;52.040;7.472;2023-05-22T04:01:42;100820.69;;;17.19;0.00
58973;BME280;44750;52.040;7.472;2023-05-22T04:06:42;100816.53;;;17.23;0.00
58973;BME280;44750;52.040;7.472;2023-05-22T04:11:46;100806.00;;;17.20;0.00
58973;BME280;44750;52.040;7.472;2023-05-22T04:16:46;100794.22;;;17.19;0.00
58973;BME280;44750;52.040;7.472;2023-05-22T04:21:47;100788.75;;;17.19;0.00
58973;BME280;44750;52.040;7.472;2023-05-22T04:26:48;100803.78;;;17.30;0.00
58973;BME280;44750;52.040;7.472;2023-05-22T04:31:48;100788.00;;;17.32;0.00
58973;BME280;44750;52.040;7.472;2023-05-22T04:36:49;100783.84;;;17.36;0.00
58973;BME280;44750;52.040;7.472;2023-05-22T04:41:49;100785.59;;;17.44;0.00
58973;BME280;44750;52.040;7.472;2023-05-22T04:46:49;100764.94;;;17.42;0.00
58973;BME280;44750;52.040;7.472;2023-05-22T04:51:49;100762.25;;;17.48;0.00
58973;BME280;44750;52.040;7.472;2023-05-22T04:56:50;100759.19;;;17.58;0.00
58973;BME280;44750;52.040;7.472;2023-05-22T05:01:50;100753.38;;;17.68;0.00
58973;BME280;44750;52.040;7.472;2023-05-22T05:06:50;100732.19;;;17.77;0.00
58973;BME280;44750;52.040;7.472;2023-05-22T05:11:51;100737.53;;;17.92;0.00
58973;BME280;44750;52.040;7.472;2023-05-22T05:16:51;100708.97;;;18.01;0.00
58973;BME280;44750;52.040;7.472;2023-05-22T05:21:52;100698.06;;;18.14;0.00
58973;BME280;44750;52.040;7.472;2023-05-22T05:26:52;100669.47;;;18.24;0.00
58973;BME280;44750;52.040;7.472;2023-05-22T05:31:52;100641.19;;;18.23;0.00
58973;BME280;44750;52.040;7.472;2023-05-22T05:36:52;100624.78;;;18.30;0.00
58973;BME280;44750;52.040;7.472;2023-05-22T05:41:53;100617.88;;;18.47;0.00
58973;BME280;44750;52.040;7.472;2023-05-22T05:46:53;100607.13;;;18.59;0.00
58973;BME280;44750;52.040;7.472;2023-05-22T05:51:53;100596.38;;;18.71;0.00
58973;BME280;44750;52.040;7.472;2023-05-22T05:56:53;100600.03;;;18.98;0.00
58973;BME280;44750;52.040;7.472;2023-05-22T06:01:54;100590.06;;;19.24;0.00
58973;BME280;44750;52.040;7.472;2023-05-22T06:06:54;100551.88;;;19.23;0.00
58973;BME280;44750;52.040;7.472;2023-05-22T06:11:54;100524.63;;;19.34;0.00
58973;BME280;44750;52.040;7.472;2023-05-22T06:16:54;100517.16;;;19.48;0.00
58973;BME280;44750;52.040;7.472;2023-05-22T06:21:55;100503.03;;;19.51;0.00
58973;BME280;44750;52.040;7.472;2023-05-22T06:26:55;100477.22;;;19.52;0.00
58973;BME280;44750;52.040;7.472;2023-05-22T06:31:55;100485.81;;;19.69;0.00
58973;BME280;44750;52.040;7.472;2023-05-22T06:36:55;100476.44;;;19.91;0.00
58973;BME280;44750;52.040;7.472;2023-05-22T06:41:56;100506.84;;;20.28;0.00
58973;BME280;44750;52.040;7.472;2023-05-22T06:46:56;100491.50;;;20.70;0.00
58973;BME280;44750;52.040;7.472;2023-05-22T06:51:56;100440.13;;;21.08;0.00
58973;BME280;44750;52.040;7.472;2023-05-22T06:57:00;100386.91;;;21.14;1.33
58973;BME280;44750;52.040;7.472;2023-05-22T07:02:00;100355.19;;;21.42;12.67
58973;BME280;44750;52.040;7.472;2023-05-22T07:07:00;100314.94;;;21.60;17.94
58973;BME280;44750;52.040;7.472;2023-05-22T07:12:00;100241.22;;;21.43;26.49
58973;BME280;44750;52.040;7.472;2023-05-22T07:17:01;100232.25;;;21.48;28.37
58973;BME280;44750;52.040;7.472;2023-05-22T07:22:01;100231.13;;;21.67;30.29
58973;BME280;44750;52.040;7.472;2023-05-22T07:27:01;100249.19;;;22.23;36.52
58973;BME280;44750;52.040;7.472;2023-05-22T07:32:02;100177.38;;;22.41;58.58
58973;BME280;44750;52.040;7.472;2023-05-22T07:37:07;100093.72;;;22.52;75.70
58973;BME280;44750;52.040;7.472;2023-05-22T07:42:10;100036.34;;;22.66;84.94
58973;BME280;44750;52.040;7.472;2023-05-22T07:47:10;100090.47;;;23.35;86.55
58973;BME280;44750;52.040;7.472;2023-05-22T07:52:10;100019.56;;;23.41;98.07
58973;BME280;44750;52.040;7.472;2023-05-22T07:57:11;99979.75;;;23.37;100.00
58973;BME280;44750;52.040;7.472;2023-05-22T08:02:11;99977.00;;;23.59;100.00
58973;BME280;44750;52.040;7.472;2023-05-22T08:07:15;99904.16;;;23.43;100.00
58973;BME280;44750;52.040;7.472;2023-05-22T08:12:18;99882.34;;;22.80;100.00
58973;BME280;44750;52.040;7.472;2023-05-22T08:17:18;99908.44;;;23.56;100.00
58973;BME280;44750;52.040;7.472;2023-05-22T08:22:18;99906.13;;;23.48;100.00
58973;BME280;44750;52.040;7.472;2023-05-22T08:27:19;99893.75;;;24.05;100.00
58973;BME280;44750;52.040;7.472;2023-05-22T08:32:19;99819.81;;;23.63;100.00
58973;BME280;44750;52.040;7.472;2023-05-22T08:37:19;99869.13;;;23.49;100.00
58973;BME280;44750;52.040;7.472;2023-05-22T08:42:20;99891.38;;;23.37;97.10
58973;BME280;44750;52.040;7.472;2023-05-22T08:47:23;99896.50;;;23.50;95.23
58973;BME280;44750;52.040;7.472;2023-05-22T08:52:44;99865.94;;;23.13;93.32
58973;BME280;44750;52.040;7.472;2023-05-22T08:57:46;99876.28;;;23.23;92.70
58973;BME280;44750;52.040;7.472;2023-05-22T09:02:46;99803.53;;;22.90;96.68
58973;BME280;44750;52.040;7.472;2023-05-22T09:07:48;99874.88;;;23.42;93.89
58973;BME280;44750;52.040;7.472;2023-05-22T09:13:07;99778.78;;;23.17;100.00
58973;BME280;44750;52.040;7.472;2023-05-22T09:18:07;99815.59;;;23.55;100.00
58973;BME280;44750;52.040;7.472;2023-05-22T09:23:14;99800.25;;;23.37;100.00
58973;BME280;44750;52.040;7.472;2023-05-22T09:28:15;99810.03;;;23.23;96.62
58973;BME280;44750;52.040;7.472;2023-05-22T09:33:16;99833.06;;;23.33;93.35
58973;BME280;44750;52.040;7.472;2023-05-22T09:38:17;99830.72;;;23.75;95.85
58973;BME280;44750;52.040;7.472;2023-05-22T09:43:17;99830.03;;;23.90;97.22
58973;BME280;44750;52.040;7.472;2023-05-22T09:48:17;99850.38;;;24.43;99.66
58973;BME280;44750;52.040;7.472;2023-05-22T09:53:19;99862.97;;;25.19;100.00
58973;BME280;44750;52.040;7.472;2023-05-22T09:58:25;99816.19;;;25.33;100.00
58973;BME280;44750;52.040;7.472;2023-05-22T10:03:26;99813.47;;;25.64;100.00
58973;BME280;44750;52.040;7.472;2023-05-22T10:08:27;99785.69;;;25.23;100.00
58973;BME280;44750;52.040;7.472;2023-05-22T10:13:28;99774.13;;;25.36;100.00
58973;BME280;44750;52.040;7.472;2023-05-22T10:18:29;99751.03;;;25.05;100.00
58973;BME280;44750;52.040;7.472;2023-05-22T10:23:30;99723.31;;;23.83;100.00
58973;BME280;44750;52.040;7.472;2023-05-22T10:28:58;99855.13;;;25.01;100.00
58973;BME280;44750;52.040;7.472;2023-05-22T10:34:02;99700.56;;;24.72;100.00
58973;BME280;44750;52.040;7.472;2023-05-22T10:39:14;99791.06;;;25.97;100.00
58973;BME280;44750;52.040;7.472;2023-05-22T10:44:21;99718.91;;;26.33;100.00
58973;BME280;44750;52.040;7.472;2023-05-22T10:49:22;99572.47;;;25.13;100.00
58973;BME280;44750;52.040;7.472;2023-05-22T10:54:42;99670.22;;;25.44;100.00
58973;BME280;44750;52.040;7.472;2023-05-22T10:59:46;99555.84;;;25.08;100.00
58973;BME280;44750;52.040;7.472;2023-05-22T11:04:46;99674.59;;;24.94;100.00
58973;BME280;44750;52.040;7.472;2023-05-22T11:09:47;99660.75;;;24.78;100.00
58973;BME280;44750;52.040;7.472;2023-05-22T11:20:03;99614.63;;;26.22;100.00
58973;BME280;44750;52.040;7.472;2023-05-22T11:25:07;99646.09;;;26.57;100.00
58973;BME280;44750;52.040;7.472;2023-05-22T11:30:09;99552.03;;;26.05;100.00
58973;BME280;44750;52.040;7.472;2023-05-22T11:40:23;99524.09;;;26.41;100.00
58973;BME280;44750;52.040;7.472;2023-05-22T11:45:24;99564.16;;;26.25;100.00
58973;BME280;44750;52.040;7.472;2023-05-22T11:50:24;99495.91;;;26.29;100.00
58973;BME280;44750;52.040;7.472;2023-05-22T11:55:24;99486.19;;;26.26;100.00
58973;BME280;44750;52.040;7.472;2023-05-22T12:00:25;99461.06;;;26.47;100.00
58973;BME280;44750;52.040;7.472;2023-05-22T12:05:26;99400.06;;;26.76;100.00
58973;BME280;44750;52.040;7.472;2023-05-22T12:10:26;99393.03;;;26.54;100.00
58973;BME280;44750;52.040;7.472;2023-05-22T12:15:26;99423.19;;;26.96;100.00
58973;BME280;44750;52.040;7.472;2023-05-22T12:20:29;99369.97;;;26.89;100.00
58973;BME280;44750;52.040;7.472;2023-05-22T12:25:34;99365.88;;;27.05;100.00
58973;BME280;44750;52.040;7.472;2023-05-22T12:30:41;99340.25;;;26.60;100.00
58973;BME280;44750;52.040;7.472;2023-05-22T12:35:41;99286.19;;;26.81;100.00
58973;BME280;44750;52.040;7.472;2023-05-22T12:40:42;99268.22;;;26.98;100.00
58973;BME280;44750;52.040;7.472;2023-05-22T12:45:42;99219.97;;;27.13;100.00
58973;BME280;44750;52.040;7.472;2023-05-22T12:50:43;99178.44;;;27.22;100.00
58973;BME280;44750;52.040;7.472;2023-05-22T12:55:43;99186.66;;;27.13;100.00
58973;BME280;44750;52.040;7.472;2023-05-22T13:00:44;99162.31;;;27.24;100.00
58973;BME280;44750;52.040;7.472;2023-05-22T13:05:44;99251.88;;;27.73;100.00
58973;BME280;44750;52.040;7.472;2023-05-22T13:10:44;99179.06;;;28.03;100.00
58973;BME280;44750;52.040;7.472;2023-05-22T13:15:44;99106.44;;;27.44;100.00
58973;BME280;44750;52.040;7.472;2023-05-22T13:20:45;99041.44;;;27.26;100.00
58973;BME280;44750;52.040;7.472;2023-05-22T13:25:47;99177.38;;;27.56;100.00
58973;BME280;44750;52.040;7.472;2023-05-22T13:30:50;99234.81;;;28.40;100.00
58973;BME280;44750;52.040;7.472;2023-05-22T13:35:50;99069.25;;;28.29;100.00
58973;BME280;44750;52.040;7.472;2023-05-22T13:40:51;99020.81;;;27.60;100.00
58973;BME280;44750;52.040;7.472;2023-05-22T13:45:51;99052.63;;;27.07;100.00
58973;BME280;44750;52.040;7.472;2023-05-22T13:50:51;99195.56;;;27.48;100.00
58973;BME280;44750;52.040;7.472;2023-05-22T13:55:51;99094.59;;;28.13;100.00
58973;BME280;44750;52.040;7.472;2023-05-22T14:00:52;98942.38;;;27.77;100.00
58973;BME280;44750;52.040;7.472;2023-05-22T14:05:52;98994.78;;;27.56;100.00
58973;BME280;44750;52.040;7.472;2023-05-22T14:10:52;99072.09;;;27.68;100.00
58973;BME280;44750;52.040;7.472;2023-05-22T14:15:53;98887.69;;;27.86;100.00
58973;BME280;44750;52.040;7.472;2023-05-22T14:20:53;98976.16;;;27.84;100.00
58973;BME280;44750;52.040;7.472;2023-05-22T14:25:53;99045.25;;;28.56;100.00
58973;BME280;44750;52.040;7.472;2023-05-22T14:30:54;98919.38;;;28.36;100.00
58973;BME280;44750;52.040;7.472;2023-05-22T14:35:54;98924.44;;;28.57;100.00
58973;BME280;44750;52.040;7.472;2023-05-22T14:40:55;98879.28;;;28.14;100.00
58973;BME280;44750;52.040;7.472;2023-05-22T14:45:55;98986.00;;;27.91;100.00
58973;BME280;44750;52.040;7.472;2023-05-22T14:50:55;99064.19;;;28.17;100.00
58973;BME280;44750;52.040;7.472;2023-05-22T14:55:56;98908.31;;;27.58;100.00
58973;BME280;44750;52.040;7.472;2023-05-22T15:00:56;99037.81;;;27.45;100.00
58973;BME280;44750;52.040;7.472;2023-05-22T15:05:56;98987.09;;;27.06;100.00
58973;BME280;44750;52.040;7.472;2023-05-22T15:10:56;99091.13;;;26.95;100.00
58973;BME280;44750;52.040;7.472;2023-05-22T15:15:57;99157.47;;;27.48;100.00
58973;BME280;44750;52.040;7.472;2023-05-22T15:20:57;99040.41;;;27.55;100.00
58973;BME280;44750;52.040;7.472;2023-05-22T15:25:57;98988.88;;;27.30;100.00
58973;BME280;44750;52.040;7.472;2023-05-22T15:30:58;98993.94;;;27.42;100.00
58973;BME280;44750;52.040;7.472;2023-05-22T15:35:58;98966.16;;;27.83;100.00
58973;BME280;44750;52.040;7.472;2023-05-22T15:40:59;98888.44;;;27.78;100.00
58973;BME280;44750;52.040;7.472;2023-05-22T15:45:59;98893.88;;;27.69;100.00
58973;BME280;44750;52.040;7.472;2023-05-22T15:50:59;98824.56;;;27.50;100.00
58973;BME280;44750;52.040;7.472;2023-05-22T15:55:59;98803.91;;;27.15;100.00
58973;BME280;44750;52.040;7.472;2023-05-22T16:01:00;98859.84;;;27.08;100.00
58973;BME280;44750;52.040;7.472;2023-05-22T16:06:00;98950.84;;;27.44;100.00
58973;BME280;44750;52.040;7.472;2023-05-22T16:11:00;98928.41;;;27.55;100.00
58973;BME280;44750;52.040;7.472;2023-05-22T16:16:00;98851.75;;;27.40;100.00
58973;BME280;44750;52.040;7.472;2023-05-22T16:21:01;98873.84;;;27.03;100.00
58973;BME280;44750;52.040;7.472;2023-05-22T16:26:01;98894.84;;;26.62;100.00
58973;BME280;44750;52.040;7.472;2023-05-22T16:31:04;99095.50;;;26.58;100.00
58973;BME280;44750;52.040;7.472;2023-05-22T16:36:04;99077.00;;;25.61;100.00
58973;BME280;44750;52.040;7.472;2023-05-22T16:41:05;99690.19;;;23.88;100.00
58973;BME280;44750;52.040;7.472;2023-05-22T16:46:05;99847.84;;;23.22;100.00
58973;BME280;44750;52.040;7.472;2023-05-22T16:51:05;99800.31;;;22.53;100.00
58973;BME280;44750;52.040;7.472;2023-05-22T16:56:06;99744.63;;;22.34;100.00
58973;BME280;44750;52.040;7.472;2023-05-22T17:01:06;99827.59;;;22.72;100.00
58973;BME280;44750;52.040;7.472;2023-05-22T17:06:07;99816.31;;;22.74;100.00
58973;BME280;44750;52.040;7.472;2023-05-22T17:11:07;99903.56;;;22.41;100.00
58973;BME280;44750;52.040;7.472;2023-05-22T17:16:07;99901.59;;;22.24;100.00
58973;BME280;44750;52.040;7.472;2023-05-22T17:21:08;99919.03;;;22.30;100.00
58973;BME280;44750;52.040;7.472;2023-05-22T17:26:08;99882.66;;;22.45;100.00
58973;BME280;44750;52.040;7.472;2023-05-22T17:31:11;99848.78;;;22.32;90.55
58973;BME280;44750;52.040;7.472;2023-05-22T17:36:11;99846.19;;;22.26;78.79
58973;BME280;44750;52.040;7.472;2023-05-22T17:41:12;99845.97;;;22.27;69.72
58973;BME280;44750;52.040;7.472;2023-05-22T17:46:12;99859.81;;;22.32;63.79
58973;BME280;44750;52.040;7.472;2023-05-22T17:51:13;99853.06;;;22.06;61.16
58973;BME280;44750;52.040;7.472;2023-05-22T17:56:13;99897.66;;;22.20;58.22
58973;BME280;44750;52.040;7.472;2023-05-22T18:01:13;99914.03;;;22.27;59.86
58973;BME280;44750;52.040;7.472;2023-05-22T18:06:13;99926.38;;;22.07;64.75
58973;BME280;44750;52.040;7.472;2023-05-22T18:11:14;99957.28;;;22.09;66.52
58973;BME280;44750;52.040;7.472;2023-05-22T18:16:17;99932.72;;;21.91;73.76
58973;BME280;44750;52.040;7.472;2023-05-22T18:21:17;99961.59;;;21.88;80.35
58973;BME280;44750;52.040;7.472;2023-05-22T18:26:21;99918.38;;;21.60;96.19
58973;BME280;44750;52.040;7.472;2023-05-22T18:31:21;99885.22;;;21.54;100.00
58973;BME280;44750;52.040;7.472;2023-05-22T18:36:22;99855.78;;;21.43;100.00
58973;BME280;44750;52.040;7.472;2023-05-22T18:41:22;99838.31;;;21.37;100.00
58973;BME280;44750;52.040;7.472;2023-05-22T18:46:22;99828.53;;;21.30;100.00
58973;BME280;44750;52.040;7.472;2023-05-22T18:51:22;99824.41;;;21.44;100.00
58973;BME280;44750;52.040;7.472;2023-05-22T18:56:23;99846.53;;;21.49;100.00
58973;BME280;44750;52.040;7.472;2023-05-22T19:01:23;99797.38;;;21.12;100.00
58973;BME280;44750;52.040;7.472;2023-05-22T19:06:23;99854.28;;;21.35;100.00
58973;BME280;44750;52.040;7.472;2023-05-22T19:11:24;99868.84;;;21.36;100.00
58973;BME280;44750;52.040;7.472;2023-05-22T19:16:24;99872.94;;;21.33;100.00
58973;BME280;44750;52.040;7.472;2023-05-22T19:21:24;99870.44;;;21.32;100.00
58973;BME280;44750;52.040;7.472;2023-05-22T19:26:25;99835.59;;;21.09;100.00
58973;BME280;44750;52.040;7.472;2023-05-22T19:31:26;99833.34;;;20.94;100.00
58973;BME280;44750;52.040;7.472;2023-05-22T19:36:26;99792.47;;;20.62;100.00
58973;BME280;44750;52.040;7.472;2023-05-22T19:41:26;99822.72;;;20.50;100.00
58973;BME280;44750;52.040;7.472;2023-05-22T19:46:27;99812.59;;;20.38;100.00
58973;BME280;44750;52.040;7.472;2023-05-22T19:51:27;99847.63;;;20.31;100.00
58973;BME280;44750;52.040;7.472;2023-05-22T19:56:27;99845.94;;;20.18;100.00
58973;BME280;44750;52.040;7.472;2023-05-22T20:01:28;99859.19;;;20.10;100.00
58973;BME280;44750;52.040;7.472;2023-05-22T20:06:28;99847.81;;;19.82;100.00
58973;BME280;44750;52.040;7.472;2023-05-22T20:11:28;99866.84;;;19.77;100.00
58973;BME280;44750;52.040;7.472;2023-05-22T20:16:28;99884.25;;;19.71;100.00
58973;BME280;44750;52.040;7.472;2023-05-22T20:21:29;99876.84;;;19.60;100.00
58973;BME280;44750;52.040;7.472;2023-05-22T20:26:29;99899.47;;;19.55;100.00
58973;BME280;44750;52.040;7.472;2023-05-22T20:31:29;99915.88;;;19.43;100.00
58973;BME280;44750;52.040;7.472;2023-05-22T20:36:29;99925.97;;;19.31;100.00
58973;BME280;44750;52.040;7.472;2023-05-22T20:41:30;99948.91;;;19.18;100.00
58973;BME280;44750;52.040;7.472;2023-05-22T20:46:30;99993.81;;;19.24;100.00
58973;BME280;44750;52.040;7.472;2023-05-22T20:51:30;100018.88;;;19.27;100.00
58973;BME280;44750;52.040;7.472;2023-05-22T20:56:31;100020.94;;;19.13;100.00
58973;BME280;44750;52.040;7.472;2023-05-22T21:01:31;100054.75;;;19.07;100.00
58973;BME280;44750;52.040;7.472;2023-05-22T21:06:31;100071.66;;;19.04;100.00
58973;BME280;44750;52.040;7.472;2023-05-22T21:11:31;100076.50;;;18.77;100.00
58973;BME280;44750;52.040;7.472;2023-05-22T21:16:32;100084.78;;;18.70;100.00
58973;BME280;44750;52.040;7.472;2023-05-22T21:21:32;100082.16;;;18.50;100.00
58973;BME280;44750;52.040;7.472;2023-05-22T21:26:32;100098.22;;;18.46;100.00
58973;BME280;44750;52.040;7.472;2023-05-22T21:31:32;100105.28;;;18.29;100.00
58973;BME280;44750;52.040;7.472;2023-05-22T21:36:32;100104.50;;;18.15;100.00
58973;BME280;44750;52.040;7.472;2023-05-22T21:41:33;100121.59;;;18.10;100.00
58973;BME280;44750;52.040;7.472;2023-05-22T21:46:33;100106.47;;;18.01;100.00
58973;BME280;44750;52.040;7.472;2023-05-22T21:51:33;100090.06;;;17.87;100.00
58973;BME280;44750;52.040;7.472;2023-05-22T21:56:33;100133.88;;;17.94;100.00
58973;BME280;44750;52.040;7.472;2023-05-22T22:01:34;100123.41;;;17.58;99.22
58973;BME280;44750;52.040;7.472;2023-05-22T22:06:35;100137.31;;;17.43;92.87
58973;BME280;44750;52.040;7.472;2023-05-22T22:11:35;100139.63;;;17.39;87.34
58973;BME280;44750;52.040;7.472;2023-05-22T22:16:35;100142.59;;;17.24;81.89
58973;BME280;44750;52.040;7.472;2023-05-22T22:21:35;100145.75;;;17.21;76.37
58973;BME280;44750;52.040;7.472;2023-05-22T22:26:36;100154.81;;;17.15;71.59
58973;BME280;44750;52.040;7.472;2023-05-22T22:31:37;100149.97;;;16.97;65.51
58973;BME280;44750;52.040;7.472;2023-05-22T22:36:37;100162.31;;;16.86;57.08
58973;BME280;44750;52.040;7.472;2023-05-22T22:41:37;100184.16;;;16.79;49.24
58973;BME280;44750;52.040;7.472;2023-05-22T22:46:37;100202.03;;;16.75;41.72
58973;BME280;44750;52.040;7.472;2023-05-22T22:51:37;100216.09;;;16.72;34.47
58973;BME280;44750;52.040;7.472;2023-05-22T22:56:38;100217.38;;;16.76;29.67
58973;BME280;44750;52.040;7.472;2023-05-22T23:01:38;100238.41;;;16.69;23.82
58973;BME280;44750;52.040;7.472;2023-05-22T23:06:39;100284.56;;;16.99;20.22
58973;BME280;44750;52.040;7.472;2023-05-22T23:11:39;100285.00;;;17.09;20.46
58973;BME280;44750;52.040;7.472;2023-05-22T23:16:39;100275.84;;;16.82;20.68
58973;BME280;44750;52.040;7.472;2023-05-22T23:21:39;100287.91;;;16.52;18.54
58973;BME280;44750;52.040;7.472;2023-05-22T23:26:40;100314.13;;;16.40;16.03
58973;BME280;44750;52.040;7.472;2023-05-22T23:31:40;100332.13;;;16.28;15.74
58973;BME280;44750;52.040;7.472;2023-05-22T23:36:40;100322.72;;;16.09;17.18
58973;BME280;44750;52.040;7.472;2023-05-22T23:41:40;100326.84;;;15.98;17.46
58973;BME280;44750;52.040;7.472;2023-05-22T23:46:41;100336.88;;;15.91;18.66
58973;BME280;44750;52.040;7.472;2023-05-22T23:51:41;100347.66;;;15.77;20.09
58973;BME280;44750;52.040;7.472;2023-05-22T23:56:41;100349.41;;;15.63;16.58
